Time;durP1;ratioP1;P1;durP2;ratioP2;P2;SDS_P1;SDS_P2;PMS_P1;PMS_P2;Temp;Humidity;BMP_temperature;BMP_pressure;BME280_temperature;BME280_humidity;BME280_pressure;Samples;Min_cycle;Max_cycle;Signal;HPM_P1;HPM_P2
2021/01/17 00:00:53;;;;;;;18.98;13.48;;;3.80;99.90;;;;;;5005024;28;20033;-72
2021/01/17 00:03:20;;;;;;;19.60;13.40;;;3.80;99.90;;;;;;5003968;28;20060;-73
2021/01/17 00:05:47;;;;;;;17.02;12.13;;;3.70;99.90;;;;;;5002394;28;20665;-73
2021/01/17 00:08:14;;;;;;;16.70;12.60;;;3.70;99.90;;;;;;5000163;28;20030;-73
2021/01/17 00:10:41;;;;;;;17.40;13.60;;;3.90;99.90;;;;;;5009918;28;20022;-71
2021/01/17 00:13:07;;;;;;;16.98;13.27;;;3.80;99.90;;;;;;5007305;28;20033;-71
2021/01/17 00:15:34;;;;;;;19.70;13.32;;;3.80;99.90;;;;;;5009941;28;20100;-71
2021/01/17 00:18:00;;;;;;;18.40;13.43;;;3.80;99.90;;;;;;5012770;28;20029;-71
2021/01/17 00:20:26;;;;;;;24.45;14.20;;;3.80;99.90;;;;;;5012966;28;20061;-71
2021/01/17 00:22:56;;;;;;;16.95;13.05;;;3.90;99.90;;;;;;5013336;28;20029;-71
2021/01/17 00:25:25;;;;;;;21.30;15.63;;;3.90;99.90;;;;;;5013845;28;20044;-73
2021/01/17 00:27:52;;;;;;;18.52;13.40;;;3.80;99.90;;;;;;5010535;28;20559;-75
2021/01/17 00:30:21;;;;;;;19.37;13.80;;;3.90;99.90;;;;;;4952278;28;1696349;-73
2021/01/17 00:32:48;;;;;;;16.65;12.13;;;4.00;99.90;;;;;;5009992;28;20025;-74
2021/01/17 00:35:14;;;;;;;16.23;13.23;;;4.00;99.90;;;;;;5014052;28;20014;-71
2021/01/17 00:37:40;;;;;;;16.60;12.85;;;3.90;99.90;;;;;;5011604;28;20034;-71
2021/01/17 00:40:07;;;;;;;18.00;13.10;;;3.90;99.90;;;;;;5007550;28;20030;-72
2021/01/17 00:42:33;;;;;;;16.33;12.35;;;3.90;99.90;;;;;;5013420;28;20026;-71
2021/01/17 00:44:59;;;;;;;21.10;12.68;;;4.00;99.90;;;;;;5011189;28;20037;-71
2021/01/17 00:47:24;;;;;;;17.75;12.95;;;4.00;99.90;;;;;;5012864;28;20021;-71
2021/01/17 00:49:50;;;;;;;25.08;13.82;;;3.90;99.90;;;;;;5012059;28;20041;-72
2021/01/17 00:52:18;;;;;;;15.30;11.93;;;3.90;99.90;;;;;;5013404;28;20018;-71
2021/01/17 00:54:44;;;;;;;20.27;13.30;;;3.90;99.90;;;;;;5009609;28;20026;-74
2021/01/17 00:57:09;;;;;;;16.35;12.80;;;3.90;99.90;;;;;;5013504;28;20033;-73
2021/01/17 00:59:35;;;;;;;18.10;12.52;;;3.90;99.90;;;;;;5011977;28;20044;-71
2021/01/17 01:02:06;;;;;;;19.02;13.35;;;4.00;99.90;;;;;;5011616;28;20121;-72
2021/01/17 01:04:32;;;;;;;22.83;13.20;;;4.00;99.90;;;;;;5010637;28;20026;-72
2021/01/17 01:06:58;;;;;;;15.52;12.95;;;4.10;99.90;;;;;;5013095;28;20018;-72
2021/01/17 01:09:24;;;;;;;20.17;13.85;;;4.10;99.90;;;;;;5008482;28;20033;-73
2021/01/17 01:11:50;;;;;;;23.75;13.23;;;4.00;99.90;;;;;;5011832;28;20034;-73
2021/01/17 01:14:17;;;;;;;15.18;12.15;;;4.00;99.90;;;;;;5012305;28;20029;-72
2021/01/17 01:16:53;;;;;;;19.85;12.48;;;4.20;99.90;;;;;;5013369;28;20053;-72
2021/01/17 01:19:20;;;;;;;16.42;13.70;;;4.10;99.90;;;;;;5013659;28;20049;-71
2021/01/17 01:21:45;;;;;;;19.20;12.70;;;4.10;99.90;;;;;;5011183;28;20057;-73
2021/01/17 01:24:13;;;;;;;19.75;14.18;;;4.00;99.90;;;;;;5012507;28;20064;-72
2021/01/17 01:26:44;;;;;;;19.33;13.77;;;4.10;99.90;;;;;;5012207;28;20032;-73
2021/01/17 01:29:11;;;;;;;16.77;11.27;;;4.10;99.90;;;;;;5013592;28;20022;-74
2021/01/17 01:31:38;;;;;;;19.15;12.05;;;4.00;99.90;;;;;;5012822;28;20073;-72
2021/01/17 01:34:05;;;;;;;15.40;11.23;;;4.00;99.90;;;;;;5013186;28;20026;-71
2021/01/17 01:36:36;;;;;;;19.25;12.40;;;4.00;99.90;;;;;;5012476;28;20029;-72
2021/01/17 01:39:04;;;;;;;14.07;11.30;;;4.10;99.90;;;;;;5013431;28;20041;-74
2021/01/17 01:41:33;;;;;;;15.98;11.90;;;4.20;99.90;;;;;;5006834;28;20092;-70
2021/01/17 01:43:59;;;;;;;14.80;11.77;;;4.10;99.90;;;;;;5005684;28;20025;-72
2021/01/17 01:46:29;;;;;;;18.52;11.50;;;4.10;99.90;;;;;;5013053;28;20377;-72
2021/01/17 01:48:55;;;;;;;17.02;12.38;;;4.00;99.90;;;;;;5013433;28;20018;-71
2021/01/17 01:51:25;;;;;;;13.02;10.25;;;4.00;99.90;;;;;;5005389;28;20493;-74
2021/01/17 01:53:53;;;;;;;15.45;10.32;;;4.00;99.90;;;;;;5012312;28;20060;-71
2021/01/17 01:56:20;;;;;;;12.70;10.45;;;4.00;99.90;;;;;;5011703;28;20053;-71
2021/01/17 01:58:46;;;;;;;15.52;11.13;;;4.00;99.90;;;;;;5011498;28;20052;-75
2021/01/17 02:01:12;;;;;;;15.43;11.15;;;4.00;99.90;;;;;;5010470;28;20028;-72
2021/01/17 02:03:39;;;;;;;17.67;11.55;;;4.00;99.90;;;;;;5012525;28;20441;-72
2021/01/17 02:06:11;;;;;;;14.23;10.25;;;4.10;99.90;;;;;;5014392;28;20026;-71
2021/01/17 02:08:40;;;;;;;;;;;4.00;99.90;;;;;;5017298;28;20029;-71
2021/01/17 02:11:46;;;;;;;12.75;9.48;;;4.00;99.90;;;;;;5016146;28;19931;-71
2021/01/17 02:14:25;;;;;;;17.02;10.35;;;3.90;99.90;;;;;;4976801;28;20045;-73
2021/01/17 02:16:53;;;;;;;14.57;10.65;;;3.90;99.90;;;;;;5009186;28;20061;-72
2021/01/17 02:19:20;;;;;;;16.67;11.98;;;3.90;99.90;;;;;;5009994;28;20049;-72
2021/01/17 02:21:56;;;;;;;14.13;10.35;;;3.90;99.90;;;;;;5014708;28;20036;-71
2021/01/17 02:24:33;;;;;;;13.57;10.10;;;3.90;99.90;;;;;;5015011;28;20121;-72
2021/01/17 02:27:00;;;;;;;15.30;11.13;;;4.00;99.90;;;;;;5015058;28;20022;-72
2021/01/17 02:29:28;;;;;;;16.27;10.70;;;4.00;99.90;;;;;;5015055;28;20052;-73
2021/01/17 02:32:00;;;;;;;14.48;11.25;;;4.10;99.90;;;;;;5014505;28;20026;-71
2021/01/17 02:34:29;;;;;;;16.85;11.65;;;4.10;99.90;;;;;;5016123;28;20021;-71
2021/01/17 02:37:18;;;;;;;18.40;10.88;;;4.10;99.90;;;;;;5013691;28;20082;-73
2021/01/17 02:40:04;;;;;;;13.93;10.27;;;4.00;99.90;;;;;;5015195;28;20045;-74
2021/01/17 02:42:31;;;;;;;16.52;12.55;;;4.00;99.90;;;;;;5015883;28;20014;-73
2021/01/17 02:44:59;;;;;;;13.88;11.68;;;3.90;99.90;;;;;;4996663;28;20031;-75
2021/01/17 02:47:25;;;;;;;17.75;11.27;;;3.90;99.90;;;;;;5013598;28;20068;-72
2021/01/17 02:50:26;;;;;;;15.80;11.43;;;3.90;99.90;;;;;;5014142;28;20026;-73
2021/01/17 02:52:59;;;;;;;18.88;13.25;;;4.00;99.90;;;;;;5015772;28;20168;-73
2021/01/17 02:55:25;;;;;;;13.68;10.60;;;4.00;99.90;;;;;;5018681;28;20025;-73
2021/01/17 02:57:57;;;;;;;13.25;10.27;;;4.00;99.90;;;;;;5022002;28;20033;-72
2021/01/17 03:00:25;;;;;;;11.95;10.25;;;4.00;99.90;;;;;;5023098;28;20022;-74
2021/01/17 03:02:54;;;;;;;13.57;11.43;;;4.00;99.90;;;;;;5014701;28;20060;-72
2021/01/17 03:05:23;;;;;;;18.83;11.77;;;4.00;99.90;;;;;;5013359;28;20081;-73
2021/01/17 03:07:52;;;;;;;13.35;11.32;;;4.00;99.90;;;;;;5014353;28;20505;-73
2021/01/17 03:10:19;;;;;;;16.73;11.80;;;4.10;99.90;;;;;;5014174;28;20041;-71
2021/01/17 03:12:46;;;;;;;16.73;11.27;;;4.20;99.90;;;;;;5014131;28;20073;-72
2021/01/17 03:15:14;;;;;;;12.77;10.57;;;4.30;99.90;;;;;;5014458;28;20030;-71
2021/01/17 03:17:39;;;;;;;12.00;10.52;;;4.30;99.90;;;;;;5013192;28;20029;-72
2021/01/17 03:20:06;;;;;;;15.77;11.20;;;4.20;99.90;;;;;;5012965;28;20391;-71
2021/01/17 03:22:32;;;;;;;14.95;10.93;;;4.10;99.90;;;;;;5015063;28;20112;-72
2021/01/17 03:24:58;;;;;;;17.02;11.30;;;4.00;99.90;;;;;;5014100;28;20084;-74
2021/01/17 03:27:24;;;;;;;13.65;11.30;;;4.00;99.90;;;;;;5015006;28;20096;-73
2021/01/17 03:29:50;;;;;;;16.25;10.75;;;4.10;99.90;;;;;;5009761;28;20702;-73
2021/01/17 03:32:17;;;;;;;13.38;10.45;;;4.00;99.90;;;;;;5009121;28;20125;-73
2021/01/17 03:34:48;;;;;;;18.00;11.07;;;4.10;99.90;;;;;;5014345;28;20026;-73
2021/01/17 03:37:18;;;;;;;15.77;9.85;;;4.10;99.90;;;;;;5014781;28;20033;-71
2021/01/17 03:39:44;;;;;;;11.93;9.55;;;4.00;99.90;;;;;;5013955;28;20036;-71
2021/01/17 03:42:11;;;;;;;18.60;9.93;;;4.00;99.90;;;;;;5014378;28;20029;-71
2021/01/17 03:44:38;;;;;;;16.15;10.55;;;4.00;99.90;;;;;;5014015;28;20036;-71
2021/01/17 03:47:04;;;;;;;16.80;10.85;;;4.00;99.90;;;;;;5012967;28;20029;-71
2021/01/17 03:49:30;;;;;;;14.43;11.02;;;4.10;99.90;;;;;;5013959;28;20017;-72
2021/01/17 03:51:56;;;;;;;13.70;9.80;;;4.10;99.90;;;;;;5014610;28;20105;-72
2021/01/17 03:54:23;;;;;;;13.30;10.32;;;4.20;99.90;;;;;;5011053;28;20022;-71
2021/01/17 03:56:49;;;;;;;14.13;10.57;;;4.20;99.90;;;;;;5010738;28;20062;-71
2021/01/17 03:59:16;;;;;;;12.95;9.57;;;4.20;99.90;;;;;;5011618;28;20089;-71
2021/01/17 04:01:45;;;;;;;12.98;11.02;;;4.20;99.90;;;;;;5011533;28;20037;-74
2021/01/17 04:04:11;;;;;;;13.30;10.82;;;4.10;99.90;;;;;;5014013;28;20032;-74
2021/01/17 04:06:38;;;;;;;12.85;10.43;;;4.10;99.90;;;;;;5013928;28;20101;-72
2021/01/17 04:09:05;;;;;;;15.27;11.88;;;4.10;99.90;;;;;;5013879;28;20096;-72
2021/01/17 04:11:31;;;;;;;13.98;11.57;;;4.00;99.90;;;;;;5011418;28;20030;-72
2021/01/17 04:13:57;;;;;;;12.63;10.05;;;4.00;99.90;;;;;;5014538;28;20034;-72
2021/01/17 04:16:23;;;;;;;19.75;11.13;;;4.10;99.90;;;;;;5013511;28;20025;-72
2021/01/17 04:18:49;;;;;;;17.85;11.55;;;4.20;99.90;;;;;;5012501;28;20121;-72
2021/01/17 04:21:15;;;;;;;12.20;10.88;;;4.20;99.90;;;;;;5013663;28;20029;-74
2021/01/17 04:23:41;;;;;;;15.38;11.63;;;4.20;99.90;;;;;;5013289;28;20044;-75
2021/01/17 04:26:07;;;;;;;15.15;11.18;;;4.30;99.90;;;;;;5013816;28;20052;-71
2021/01/17 04:28:33;;;;;;;13.23;10.95;;;4.30;99.90;;;;;;5013064;28;20037;-72
2021/01/17 04:30:59;;;;;;;12.02;10.27;;;4.40;99.90;;;;;;5012311;28;20398;-72
2021/01/17 04:33:24;;;;;;;15.30;12.02;;;4.40;99.90;;;;;;5013473;28;20029;-74
2021/01/17 04:35:50;;;;;;;13.60;9.65;;;4.40;99.90;;;;;;5014450;28;20030;-72
2021/01/17 04:38:16;;;;;;;14.82;11.23;;;4.50;99.90;;;;;;5012282;28;20029;-72
2021/01/17 04:40:43;;;;;;;17.98;10.55;;;4.50;99.90;;;;;;5013723;28;20053;-73
2021/01/17 04:43:15;;;;;;;14.80;11.50;;;4.40;99.90;;;;;;5012015;28;20041;-71
2021/01/17 04:45:42;;;;;;;12.57;9.32;;;4.40;99.90;;;;;;5011029;28;20033;-73
2021/01/17 04:48:08;;;;;;;12.93;10.15;;;4.40;99.90;;;;;;5012864;28;20030;-72
2021/01/17 04:50:34;;;;;;;14.25;9.38;;;4.40;99.90;;;;;;5012694;28;20029;-72
2021/01/17 04:53:05;;;;;;;14.13;10.15;;;4.50;99.90;;;;;;5012993;28;20413;-73
2021/01/17 04:55:36;;;;;;;11.52;9.20;;;4.40;99.90;;;;;;5013854;28;20029;-72
2021/01/17 04:58:17;;;;;;;13.70;10.27;;;4.30;99.90;;;;;;5013106;28;20485;-72
2021/01/17 05:01:04;;;;;;;11.05;8.77;;;4.30;99.90;;;;;;5005393;28;20030;-71
2021/01/17 05:03:37;;;;;;;10.85;8.52;;;4.30;99.90;;;;;;5012597;28;20112;-72
2021/01/17 05:06:09;;;;;;;10.98;9.70;;;4.20;99.90;;;;;;5006280;28;20030;-71
2021/01/17 05:08:35;;;;;;;10.90;9.32;;;4.20;99.90;;;;;;5013320;28;20072;-71
2021/01/17 05:11:07;;;;;;;14.27;7.90;;;4.00;99.90;;;;;;5013036;28;20030;-72
2021/01/17 05:13:48;;;;;;;12.23;9.45;;;4.00;99.90;;;;;;5013906;28;20057;-74
2021/01/17 05:16:15;;;;;;;11.63;8.95;;;4.10;99.90;;;;;;5013160;28;20565;-73
2021/01/17 05:18:52;;;;;;;14.75;9.32;;;4.20;99.90;;;;;;5007250;28;20486;-71
2021/01/17 05:21:30;;;;;;;10.02;8.68;;;4.30;99.90;;;;;;5012385;28;20057;-73
2021/01/17 05:24:00;;;;;;;11.30;9.88;;;4.40;99.90;;;;;;5013340;28;20053;-72
2021/01/17 05:26:26;;;;;;;12.80;8.50;;;4.40;99.90;;;;;;5013188;28;20022;-74
2021/01/17 05:28:53;;;;;;;13.25;9.50;;;4.40;99.90;;;;;;5013824;28;20114;-74
2021/01/17 05:31:21;;;;;;;17.02;9.00;;;4.40;99.90;;;;;;5013537;28;20053;-72
2021/01/17 05:33:47;;;;;;;13.20;10.02;;;4.30;99.90;;;;;;5011004;28;20069;-72
2021/01/17 05:36:17;;;;;;;13.07;8.63;;;4.30;99.90;;;;;;5012900;28;20099;-72
2021/01/17 05:38:57;;;;;;;11.98;9.15;;;4.30;99.90;;;;;;5012130;28;20101;-72
2021/01/17 05:41:24;;;;;;;10.98;8.90;;;4.30;99.90;;;;;;5015964;28;20026;-72
2021/01/17 05:43:50;;;;;;;13.63;10.95;;;4.40;99.90;;;;;;5017059;28;20029;-72
2021/01/17 05:46:16;;;;;;;14.57;8.27;;;4.40;99.90;;;;;;5015701;28;20026;-72
2021/01/17 05:48:42;;;;;;;14.60;7.93;;;4.50;99.90;;;;;;5016936;28;20029;-71
2021/01/17 05:51:08;;;;;;;10.25;9.13;;;4.40;99.90;;;;;;5016421;28;20536;-71
2021/01/17 05:53:35;;;;;;;14.98;8.95;;;4.40;99.90;;;;;;5017331;28;20029;-72
2021/01/17 05:56:15;;;;;;;11.20;8.30;;;4.40;99.90;;;;;;5013353;28;20105;-72
2021/01/17 05:58:44;;;;;;;8.40;7.32;;;4.40;99.90;;;;;;5017173;28;20022;-71
2021/01/17 06:01:20;;;;;;;9.02;7.85;;;4.40;99.90;;;;;;5013957;28;20061;-72
2021/01/17 06:03:50;;;;;;;11.38;8.88;;;4.40;99.90;;;;;;5016171;28;20030;-71
2021/01/17 06:06:30;;;;;;;13.63;8.85;;;4.40;99.90;;;;;;5015163;28;20076;-73
2021/01/17 06:08:58;;;;;;;10.57;7.97;;;4.40;99.90;;;;;;5016014;28;20631;-72
2021/01/17 06:11:25;;;;;;;10.18;8.18;;;4.30;99.90;;;;;;5015952;28;20056;-72
2021/01/17 06:14:01;;;;;;;11.82;8.82;;;4.30;99.90;;;;;;5016305;28;20489;-72
2021/01/17 06:16:40;;;;;;;11.00;8.43;;;4.30;99.90;;;;;;5012228;28;20058;-74
2021/01/17 06:19:08;;;;;;;9.93;7.20;;;4.30;99.90;;;;;;5009390;28;20045;-71
2021/01/17 06:21:35;;;;;;;10.90;8.65;;;4.40;99.90;;;;;;5015801;28;20026;-71
2021/01/17 06:24:09;;;;;;;11.00;8.90;;;4.60;99.90;;;;;;5015747;28;20390;-72
2021/01/17 06:26:36;;;;;;;12.95;10.40;;;4.50;99.90;;;;;;5013755;28;20026;-74
2021/01/17 06:29:08;;;;;;;8.43;7.47;;;4.40;99.90;;;;;;5016406;28;20029;-73
2021/01/17 06:31:34;;;;;;;16.15;7.90;;;4.40;99.90;;;;;;5012341;28;20030;-72
2021/01/17 06:34:08;;;;;;;9.23;7.28;;;4.40;99.90;;;;;;5016176;28;20116;-72
2021/01/17 06:36:37;;;;;;;9.73;7.20;;;4.40;99.90;;;;;;5014692;28;20091;-72
2021/01/17 06:39:05;;;;;;;9.95;8.60;;;4.40;99.90;;;;;;5016335;28;20025;-72
2021/01/17 06:41:37;;;;;;;9.07;7.65;;;4.50;99.90;;;;;;5017136;28;20129;-74
2021/01/17 06:44:09;;;;;;;;;;;4.50;99.90;;;;;;5020069;28;20029;-72
2021/01/17 06:46:36;;;;;;;;;;;4.50;99.90;;;;;;5018159;28;19999;-71
2021/01/17 06:49:38;;;;;;;8.30;6.55;;;4.60;99.90;;;;;;5014694;28;19912;-73
2021/01/17 06:52:05;;;;;;;15.85;7.82;;;4.70;99.90;;;;;;4983697;28;20076;-72
2021/01/17 06:54:39;;;;;;;10.65;7.28;;;4.60;99.90;;;;;;5014413;28;20032;-74
2021/01/17 06:57:07;;;;;;;9.13;7.57;;;4.50;99.90;;;;;;5016129;28;20057;-71
2021/01/17 06:59:34;;;;;;;13.25;7.97;;;4.60;99.90;;;;;;5015364;28;20030;-72
2021/01/17 07:02:15;;;;;;;11.05;6.30;;;4.50;99.90;;;;;;5009042;28;20029;-72
2021/01/17 07:04:53;;;;;;;13.57;7.43;;;4.50;99.90;;;;;;5015338;28;20030;-74
2021/01/17 07:07:37;;;;;;;7.25;6.55;;;4.60;99.90;;;;;;5015711;28;20018;-72
2021/01/17 07:10:05;;;;;;;10.60;7.13;;;4.60;99.90;;;;;;5015900;28;20025;-71
2021/01/17 07:12:40;;;;;;;13.80;8.80;;;4.50;99.90;;;;;;5015471;28;20028;-73
2021/01/17 07:15:11;;;;;;;7.53;6.68;;;4.60;99.90;;;;;;5015260;28;20050;-72
2021/01/17 07:17:42;;;;;;;9.93;7.25;;;4.60;99.90;;;;;;5013853;28;20033;-72
2021/01/17 07:20:13;;;;;;;12.88;7.22;;;4.60;99.90;;;;;;5014815;28;20021;-74
2021/01/17 07:22:43;;;;;;;14.45;7.93;;;4.60;99.90;;;;;;5014556;28;20029;-72
2021/01/17 07:25:12;;;;;;;6.88;6.03;;;4.70;99.90;;;;;;5014930;28;20046;-72
2021/01/17 07:28:02;;;;;;;8.35;6.93;;;4.60;99.90;;;;;;5015365;28;20026;-72
2021/01/17 07:30:56;;;;;;;9.05;7.05;;;4.70;99.90;;;;;;5014802;28;20080;-71
2021/01/17 07:33:26;;;;;;;9.57;7.45;;;4.70;99.90;;;;;;5003799;28;20033;-73
2021/01/17 07:35:55;;;;;;;10.38;7.65;;;4.80;99.90;;;;;;5013474;28;20560;-72
2021/01/17 07:38:22;;;;;;;11.98;8.63;;;4.80;99.90;;;;;;5014866;28;20022;-72
2021/01/17 07:40:53;;;;;;;12.65;8.13;;;4.80;99.90;;;;;;5014376;28;20033;-74
2021/01/17 07:43:33;;;;;;;9.73;7.18;;;4.80;99.90;;;;;;5014430;28;20704;-72
2021/01/17 07:46:09;;;;;;;7.88;6.05;;;4.90;99.90;;;;;;5014045;28;20025;-72
2021/01/17 07:48:39;;;;;;;12.43;7.38;;;5.00;99.90;;;;;;5014485;28;20018;-74
2021/01/17 07:51:09;;;;;;;9.93;7.88;;;5.00;99.90;;;;;;5013718;28;20393;-73
2021/01/17 07:53:38;;;;;;;10.82;8.32;;;5.00;99.90;;;;;;5013481;28;20037;-71
2021/01/17 07:56:04;;;;;;;11.40;7.57;;;5.00;99.90;;;;;;5014117;28;20033;-73
2021/01/17 07:58:33;;;;;;;10.40;7.75;;;5.10;99.90;;;;;;5014355;28;20412;-72
2021/01/17 08:01:02;;;;;;;8.80;6.80;;;5.20;99.90;;;;;;5012899;28;20030;-72
2021/01/17 08:03:28;;;;;;;9.98;6.70;;;5.30;99.90;;;;;;5013657;28;20030;-72
2021/01/17 08:05:59;;;;;;;8.95;7.53;;;5.30;99.90;;;;;;5013649;28;20198;-72
2021/01/17 08:08:34;;;;;;;11.02;7.68;;;5.30;99.90;;;;;;5014141;28;20371;-72
2021/01/17 08:11:04;;;;;;;9.73;7.78;;;5.30;99.90;;;;;;5012042;28;20042;-73
2021/01/17 08:13:33;;;;;;;10.10;7.18;;;5.30;99.90;;;;;;5013809;28;20044;-72
2021/01/17 08:16:20;;;;;;;8.75;7.85;;;5.40;99.90;;;;;;5011079;28;20030;-74
2021/01/17 08:18:48;;;;;;;16.10;7.63;;;5.30;99.90;;;;;;5012582;28;20026;-72
2021/01/17 08:21:20;;;;;;;10.23;7.28;;;5.40;99.90;;;;;;5012434;28;20445;-72
2021/01/17 08:24:07;;;;;;;;;;;5.40;99.90;;;;;;5012583;28;20030;-72
2021/01/17 08:27:04;;;;;;;9.52;7.28;;;5.40;99.90;;;;;;5012244;28;19912;-71
2021/01/17 08:29:50;;;;;;;9.02;7.78;;;5.50;99.90;;;;;;5013141;28;20359;-74
2021/01/17 08:32:34;;;;;;;8.25;7.03;;;5.50;99.90;;;;;;5012434;28;20022;-72
2021/01/17 08:35:24;;;;;;;7.65;6.85;;;5.50;99.90;;;;;;5011449;28;20025;-73
2021/01/17 08:38:12;;;;;;;10.40;7.90;;;5.60;99.90;;;;;;5013436;28;20079;-72
2021/01/17 08:40:40;;;;;;;8.63;7.18;;;5.50;99.90;;;;;;5012099;28;20518;-73
2021/01/17 08:43:08;;;;;;;11.60;8.15;;;5.60;99.90;;;;;;5013849;28;20029;-74
2021/01/17 08:45:36;;;;;;;15.60;8.38;;;5.80;99.90;;;;;;5013857;28;20022;-71
2021/01/17 08:48:20;;;;;;;13.25;7.10;;;6.00;99.90;;;;;;5013872;28;20046;-72
2021/01/17 08:50:51;;;;;;;11.05;7.53;;;6.20;99.90;;;;;;5012647;28;20593;-75
2021/01/17 08:53:31;;;;;;;8.80;6.60;;;6.30;99.90;;;;;;5013365;28;20026;-72
2021/01/17 08:56:19;;;;;;;9.93;5.97;;;6.30;99.90;;;;;;5013328;28;20649;-73
2021/01/17 08:58:47;;;;;;;8.18;7.25;;;6.30;99.90;;;;;;5013689;28;20501;-71
2021/01/17 09:01:15;;;;;;;9.38;8.25;;;6.40;99.90;;;;;;5013239;28;20058;-74
2021/01/17 09:03:43;;;;;;;11.73;8.73;;;6.50;99.90;;;;;;5013757;28;20021;-72
2021/01/17 09:06:12;;;;;;;10.73;8.05;;;6.70;99.90;;;;;;5012866;28;20114;-73
2021/01/17 09:08:42;;;;;;;14.32;7.25;;;6.60;99.90;;;;;;5006175;28;20054;-72
2021/01/17 09:11:29;;;;;;;10.82;7.28;;;6.70;99.90;;;;;;5012482;28;20018;-72
2021/01/17 09:14:07;;;;;;;11.95;8.38;;;6.80;99.90;;;;;;5012893;28;20100;-73
2021/01/17 09:16:37;;;;;;;10.43;8.52;;;6.90;99.90;;;;;;5016154;28;20022;-73
2021/01/17 09:19:06;;;;;;;11.18;8.70;;;6.80;99.90;;;;;;5017268;28;20081;-71
2021/01/17 09:21:33;;;;;;;10.02;8.38;;;6.90;99.90;;;;;;5017008;28;20018;-72
2021/01/17 09:24:05;;;;;;;11.45;8.90;;;7.10;99.90;;;;;;5016857;28;20088;-71
2021/01/17 09:26:32;;;;;;;16.65;9.27;;;7.30;99.90;;;;;;5016272;28;20030;-72
2021/01/17 09:28:58;;;;;;;13.20;9.45;;;7.50;99.90;;;;;;5009795;28;20029;-73
2021/01/17 09:31:27;;;;;;;12.73;8.95;;;7.50;99.90;;;;;;5016584;28;20037;-73
2021/01/17 09:33:54;;;;;;;9.05;7.35;;;7.80;99.90;;;;;;5016523;28;20026;-74
2021/01/17 09:36:24;;;;;;;13.85;7.80;;;8.00;99.90;;;;;;5016705;28;20045;-72
2021/01/17 09:38:50;;;;;;;11.07;6.70;;;8.00;99.90;;;;;;5016233;28;20156;-71
2021/01/17 09:41:24;;;;;;;11.38;5.75;;;8.00;99.90;;;;;;5015139;28;20025;-73
2021/01/17 09:43:51;;;;;;;7.32;6.00;;;8.00;99.90;;;;;;5016736;28;20489;-73
2021/01/17 09:46:21;;;;;;;10.05;6.90;;;7.90;99.90;;;;;;5009637;28;20030;-71
2021/01/17 09:48:58;;;;;;;11.23;6.80;;;7.80;99.90;;;;;;5014640;28;20479;-71
2021/01/17 09:51:28;;;;;;;10.95;6.57;;;7.80;99.90;;;;;;5016605;28;20392;-73
2021/01/17 09:53:55;;;;;;;6.43;5.72;;;7.80;99.90;;;;;;5016595;28;20022;-72
2021/01/17 09:56:23;;;;;;;7.70;5.13;;;7.70;99.90;;;;;;5016396;28;20026;-71
2021/01/17 09:58:49;;;;;;;11.23;5.72;;;7.50;99.90;;;;;;5016122;28;20034;-73
2021/01/17 10:01:19;;;;;;;5.90;4.78;;;7.50;99.90;;;;;;5016043;28;20032;-71
2021/01/17 10:03:47;;;;;;;6.55;5.03;;;7.40;99.90;;;;;;5016733;28;20034;-72
2021/01/17 10:06:14;;;;;;;8.65;6.15;;;7.10;99.90;;;;;;5015688;28;20022;-73
2021/01/17 10:08:40;;;;;;;6.55;5.55;;;7.20;99.90;;;;;;5016754;28;20036;-71
2021/01/17 10:11:06;;;;;;;9.90;6.45;;;7.30;99.90;;;;;;5016950;28;20021;-72
2021/01/17 10:13:32;;;;;;;10.63;7.13;;;7.20;99.90;;;;;;5015152;28;20026;-72
2021/01/17 10:15:57;;;;;;;7.85;5.70;;;7.30;99.90;;;;;;5015839;28;20026;-72
2021/01/17 10:18:24;;;;;;;8.40;6.40;;;7.40;99.90;;;;;;5016298;28;20389;-72
2021/01/17 10:20:55;;;;;;;7.47;5.25;;;7.40;99.90;;;;;;5016693;28;20026;-71
2021/01/17 10:23:30;;;;;;;8.50;5.82;;;7.40;99.90;;;;;;5015510;28;20037;-72
2021/01/17 10:25:57;;;;;;;7.88;6.03;;;7.50;99.90;;;;;;5007237;28;20018;-71
2021/01/17 10:28:26;;;;;;;10.57;6.32;;;7.70;99.90;;;;;;5017621;28;20494;-72
2021/01/17 10:30:59;;;;;;;7.45;5.70;;;7.80;99.90;;;;;;5017748;28;20117;-72
2021/01/17 10:33:24;;;;;;;;;;;7.70;99.90;;;;;;5016324;28;20073;-71
2021/01/17 10:35:51;;;;;;;8.18;5.78;;;7.60;99.90;;;;;;5015994;28;20440;-71
2021/01/17 10:38:19;;;;;;;7.43;5.63;;;7.60;99.90;;;;;;5014392;28;20030;-71
2021/01/17 10:40:46;;;;;;;6.45;5.82;;;7.70;99.90;;;;;;5015876;28;20069;-71
2021/01/17 10:43:35;;;;;;;11.55;5.80;;;7.70;99.90;;;;;;5013664;28;20497;-73
2021/01/17 10:46:10;;;;;;;7.57;5.75;;;7.60;99.90;;;;;;5007357;28;20398;-71
2021/01/17 10:48:47;;;;;;;7.13;5.32;;;7.40;99.90;;;;;;5015837;28;20076;-73
2021/01/17 10:51:19;;;;;;;6.88;5.22;;;7.50;99.90;;;;;;5014096;28;20021;-72
2021/01/17 10:53:49;;;;;;;6.60;5.90;;;7.40;99.90;;;;;;5015715;28;20421;-71
2021/01/17 10:56:27;;;;;;;5.80;5.20;;;7.30;99.90;;;;;;5015192;28;20029;-71
2021/01/17 10:59:00;;;;;;;7.20;5.22;;;7.20;99.90;;;;;;5014392;28;20026;-71
2021/01/17 11:01:30;;;;;;;6.38;5.63;;;7.10;99.90;;;;;;5014640;28;20500;-73
2021/01/17 11:03:58;;;;;;;10.38;5.97;;;7.00;99.90;;;;;;5015050;28;20691;-72
2021/01/17 11:06:29;;;;;;;8.93;5.65;;;6.90;99.90;;;;;;5015052;28;20037;-71
2021/01/17 11:08:57;;;;;;;10.00;5.90;;;7.00;99.90;;;;;;5014770;28;20018;-72
2021/01/17 11:11:29;;;;;;;8.32;6.28;;;7.20;99.90;;;;;;5014977;28;20026;-73
2021/01/17 11:14:07;;;;;;;8.23;6.10;;;7.00;99.90;;;;;;5014835;28;20026;-72
2021/01/17 11:16:41;;;;;;;10.77;7.00;;;7.10;99.90;;;;;;5014958;28;20512;-73
2021/01/17 11:19:13;;;;;;;9.50;6.35;;;7.20;99.90;;;;;;5017046;28;20026;-71
2021/01/17 11:21:39;;;;;;;12.43;7.03;;;7.20;99.90;;;;;;5011900;28;20190;-72
2021/01/17 11:24:06;;;;;;;8.32;6.40;;;7.30;99.90;;;;;;5014727;28;20057;-75
2021/01/17 11:26:32;;;;;;;13.13;6.40;;;7.30;99.90;;;;;;5015025;28;20502;-71
2021/01/17 11:29:01;;;;;;;6.90;5.75;;;7.40;99.90;;;;;;5015221;28;20389;-71
2021/01/17 11:31:28;;;;;;;9.38;6.78;;;7.60;99.90;;;;;;5014827;28;20056;-72
2021/01/17 11:33:54;;;;;;;7.93;7.18;;;7.80;99.90;;;;;;5015006;28;20026;-72
2021/01/17 11:36:25;;;;;;;8.63;5.82;;;8.00;99.90;;;;;;5014296;28;20033;-71
2021/01/17 11:38:54;;;;;;;5.88;5.15;;;8.30;99.90;;;;;;5013428;28;20145;-71
2021/01/17 11:41:23;;;;;;;9.32;5.88;;;8.30;99.90;;;;;;5007848;28;20037;-72
2021/01/17 11:43:50;;;;;;;6.20;5.60;;;8.20;99.90;;;;;;5014490;28;20025;-72
2021/01/17 11:46:17;;;;;;;9.60;5.50;;;8.20;99.90;;;;;;5014469;28;20033;-73
2021/01/17 11:48:44;;;;;;;6.57;5.55;;;8.30;99.90;;;;;;5007880;28;20034;-71
2021/01/17 11:51:11;;;;;;;8.25;6.55;;;8.40;99.90;;;;;;5006264;28;20056;-71
2021/01/17 11:53:37;;;;;;;10.55;5.63;;;8.60;99.90;;;;;;5010020;28;20026;-72
2021/01/17 11:56:04;;;;;;;9.00;6.50;;;8.70;99.90;;;;;;4993379;28;20061;-73
2021/01/17 11:58:39;;;;;;;9.32;5.22;;;8.80;99.90;;;;;;5000453;28;20026;-70
2021/01/17 12:01:05;;;;;;;5.47;4.82;;;8.50;99.90;;;;;;5014435;28;20018;-72
2021/01/17 12:03:37;;;;;;;5.15;4.40;;;8.60;99.90;;;;;;5009730;28;20033;-73
2021/01/17 12:06:09;;;;;;;7.57;4.80;;;8.70;99.90;;;;;;5000455;28;20014;-74
2021/01/17 12:09:04;;;;;;;7.82;5.07;;;8.90;99.90;;;;;;5011734;28;20034;-75
2021/01/17 12:11:51;;;;;;;28.23;6.25;;;9.10;99.90;;;;;;5012713;28;20061;-74
2021/01/17 12:14:30;;;;;;;5.38;4.25;;;9.40;99.90;;;;;;5013190;28;20026;-73
2021/01/17 12:16:57;;;;;;;5.05;4.43;;;9.60;99.90;;;;;;5013061;28;20057;-73
2021/01/17 12:19:25;;;;;;;4.55;4.15;;;9.80;99.90;;;;;;5007134;28;20026;-73
2021/01/17 12:21:55;;;;;;;5.55;5.00;;;9.80;99.90;;;;;;5009141;28;20085;-74
2021/01/17 12:24:21;;;;;;;4.85;3.95;;;9.70;99.90;;;;;;5012564;28;20044;-72
2021/01/17 12:26:47;;;;;;;4.60;4.00;;;9.70;99.90;;;;;;5013325;28;20053;-72
2021/01/17 12:29:14;;;;;;;4.88;4.32;;;9.60;99.90;;;;;;5013488;28;20030;-73
2021/01/17 12:31:41;;;;;;;5.65;4.38;;;9.40;99.90;;;;;;5013757;28;20034;-75
2021/01/17 12:34:09;;;;;;;11.63;6.00;;;9.50;99.90;;;;;;5012338;28;21362;-72
2021/01/17 12:36:37;;;;;;;5.70;5.05;;;9.60;99.90;;;;;;5012255;28;20105;-72
2021/01/17 12:39:05;;;;;;;9.23;6.10;;;9.60;99.90;;;;;;5013815;28;20026;-72
2021/01/17 12:41:34;;;;;;;5.85;5.03;;;9.50;99.90;;;;;;5013264;28;20026;-72
2021/01/17 12:44:01;;;;;;;5.50;5.00;;;9.60;99.90;;;;;;5013453;28;20048;-72
2021/01/17 12:46:28;;;;;;;4.55;3.97;;;9.50;99.90;;;;;;5013596;28;20366;-72
2021/01/17 12:48:55;;;;;;;7.43;4.47;;;9.40;99.90;;;;;;5013921;28;20030;-71
2021/01/17 12:51:22;;;;;;;9.85;5.97;;;9.40;99.90;;;;;;5013827;28;20398;-72
2021/01/17 12:53:49;;;;;;;4.97;4.47;;;9.30;99.90;;;;;;5013341;28;20033;-72
2021/01/17 12:56:16;;;;;;;5.88;5.30;;;9.20;99.90;;;;;;5011143;28;20049;-71
2021/01/17 12:58:43;;;;;;;8.93;6.10;;;9.20;99.90;;;;;;5011757;28;20026;-75
2021/01/17 13:01:09;;;;;;;8.38;5.63;;;9.20;99.90;;;;;;5002707;28;20037;-72
2021/01/17 13:03:36;;;;;;;6.10;5.38;;;9.10;99.90;;;;;;4992142;28;20053;-73